Time;durP1;ratioP1;P1;durP2;ratioP2;P2;SDS_P1;SDS_P2;PMS_P1;PMS_P2;Temp;Humidity;BMP_temperature;BMP_pressure;BME280_temperature;BME280_humidity;BME280_pressure;Samples;Min_cycle;Max_cycle;Signal;HPM_P1;HPM_P2
2022/10/13 00:01:00;;;;;;;48.63;28.03;;;13.30;83.70;;;;;;4998816;28;20887;-74
2022/10/13 00:03:28;;;;;;;50.87;27.87;;;13.30;83.60;;;;;;4997925;28;20585;-75
2022/10/13 00:05:56;;;;;;;45.83;26.77;;;13.30;83.60;;;;;;5003772;28;20449;-75
2022/10/13 00:08:25;;;;;;;43.53;25.40;;;13.30;83.60;;;;;;5002929;28;20453;-76
2022/10/13 00:10:53;;;;;;;43.63;25.80;;;13.30;83.60;;;;;;5003126;28;20476;-74
2022/10/13 00:13:24;;;;;;;47.27;26.17;;;13.30;83.70;;;;;;5001054;28;20470;-76
2022/10/13 00:15:52;;;;;;;44.10;26.33;;;13.30;83.70;;;;;;5000595;28;20496;-75
2022/10/13 00:18:21;;;;;;;44.73;26.77;;;13.30;83.70;;;;;;4999103;28;20576;-76
2022/10/13 00:20:50;;;;;;;42.00;24.30;;;13.30;83.70;;;;;;5017232;28;21229;-75
2022/10/13 00:23:18;;;;;;;40.70;24.63;;;13.30;83.60;;;;;;4999478;28;20502;-74
2022/10/13 00:25:49;;;;;;;44.13;25.80;;;13.30;83.60;;;;;;4998722;28;20514;-75
2022/10/13 00:28:19;;;;;;;42.13;25.73;;;13.30;83.60;;;;;;4996840;28;20453;-75
2022/10/13 00:30:47;;;;;;;49.50;27.50;;;13.30;83.60;;;;;;4999111;28;20480;-75
2022/10/13 00:33:16;;;;;;;41.60;24.37;;;13.30;83.50;;;;;;4999777;28;20476;-75
2022/10/13 00:35:46;;;;;;;43.03;25.17;;;13.20;83.60;;;;;;4995549;28;20456;-75
2022/10/13 00:38:15;;;;;;;43.03;24.57;;;13.20;83.60;;;;;;4998568;28;21065;-76
2022/10/13 00:40:45;;;;;;;40.40;24.27;;;13.20;83.60;;;;;;5016348;28;21093;-74
2022/10/13 00:43:19;;;;;;;45.80;25.63;;;13.20;83.60;;;;;;4997802;28;20445;-75
2022/10/13 00:45:49;;;;;;;40.70;25.23;;;13.20;83.60;;;;;;5003960;28;20468;-77
2022/10/13 00:48:18;;;;;;;46.77;24.80;;;13.20;83.50;;;;;;5001605;28;20447;-77
2022/10/13 00:50:47;;;;;;;39.67;23.27;;;13.20;83.60;;;;;;5002595;28;20540;-78
2022/10/13 00:53:16;;;;;;;40.43;23.90;;;13.20;83.60;;;;;;4994413;28;20497;-80
2022/10/13 00:55:45;;;;;;;39.77;23.40;;;13.20;83.50;;;;;;4994662;28;20461;-78
2022/10/13 00:58:16;;;;;;;39.00;23.03;;;13.20;83.50;;;;;;5000213;28;20461;-79
2022/10/13 01:00:49;;;;;;;36.23;23.43;;;13.10;83.40;;;;;;4996596;28;20469;-78
2022/10/13 01:03:18;;;;;;;39.40;23.33;;;13.10;83.40;;;;;;5017559;28;20954;-79
2022/10/13 01:05:47;;;;;;;44.40;24.67;;;13.10;83.40;;;;;;4995720;28;20454;-78
2022/10/13 01:08:16;;;;;;;38.53;22.50;;;13.10;83.40;;;;;;5015883;28;21097;-77
2022/10/13 01:10:55;;;;;;;39.30;23.60;;;13.00;83.30;;;;;;5001439;28;20982;-78
2022/10/13 01:13:31;;;;;;;36.13;23.43;;;13.00;83.30;;;;;;4995965;28;20520;-78
2022/10/13 01:16:12;;;;;;;47.00;23.90;;;13.00;83.30;;;;;;4996054;28;20537;-78
2022/10/13 01:18:46;;;;;;;48.00;25.53;;;13.00;83.20;;;;;;5000498;28;20457;-79
2022/10/13 01:21:24;;;;;;;42.40;26.77;;;12.90;83.20;;;;;;5012466;28;20536;-79
2022/10/13 01:24:26;;;;;;;51.90;28.10;;;12.90;83.20;;;;;;4996643;28;20961;-77
2022/10/13 01:27:37;;;;;;;49.87;28.97;;;12.90;83.20;;;;;;4999781;28;20456;-77
2022/10/13 01:30:17;;;;;;;59.20;28.70;;;12.90;83.20;;;;;;4940032;28;20471;-77
2022/10/13 01:33:04;;;;;;;52.13;27.80;;;12.80;83.20;;;;;;4922316;29;20532;-78
2022/10/13 01:35:54;;;;;;;50.87;28.37;;;12.80;83.20;;;;;;4981237;28;20470;-78
2022/10/13 01:38:29;;;;;;;59.80;28.80;;;12.80;83.30;;;;;;4999426;28;20533;-80
2022/10/13 01:41:03;;;;;;;50.40;27.40;;;12.80;83.30;;;;;;5001231;28;20472;-77
2022/10/13 01:43:38;;;;;;;43.87;25.80;;;12.80;83.30;;;;;;4998065;28;20488;-77
2022/10/13 01:46:12;;;;;;;50.93;27.73;;;12.80;83.40;;;;;;4995786;28;20471;-78
2022/10/13 01:48:42;;;;;;;54.03;27.83;;;12.80;83.40;;;;;;4998624;28;20445;-80
2022/10/13 01:51:14;;;;;;;50.23;27.33;;;12.80;83.50;;;;;;4994854;28;20477;-79
2022/10/13 01:53:43;;;;;;;47.60;26.60;;;12.80;83.60;;;;;;4994750;28;20484;-79
2022/10/13 01:56:11;;;;;;;44.40;26.87;;;12.80;83.60;;;;;;5013069;28;20964;-78
2022/10/13 01:58:40;;;;;;;44.73;25.70;;;12.80;83.60;;;;;;4996792;28;20463;-78
2022/10/13 02:01:22;;;;;;;40.70;25.30;;;12.80;83.70;;;;;;5000569;28;20477;-78
2022/10/13 02:04:01;;;;;;;58.47;26.10;;;12.80;83.80;;;;;;4995115;28;20450;-77
2022/10/13 02:06:32;;;;;;;47.47;26.13;;;12.80;83.80;;;;;;4996241;28;20523;-78
2022/10/13 02:09:05;;;;;;;43.67;26.30;;;12.80;83.90;;;;;;5012590;28;20457;-77
2022/10/13 02:11:33;;;;;;;46.50;25.30;;;12.80;83.90;;;;;;4996365;28;21048;-78
2022/10/13 02:14:07;;;;;;;49.10;27.17;;;12.80;83.90;;;;;;4999577;28;20560;-77
2022/10/13 02:16:40;;;;;;;50.93;27.33;;;12.80;83.90;;;;;;4997083;28;20488;-77
2022/10/13 02:19:12;;;;;;;64.00;29.90;;;12.90;83.90;;;;;;5000187;28;20974;-78
2022/10/13 02:21:41;;;;;;;53.40;29.87;;;12.90;83.90;;;;;;5014119;28;20512;-78
2022/10/13 02:24:10;;;;;;;52.93;28.57;;;12.90;84.10;;;;;;4999927;28;20476;-78
2022/10/13 02:26:38;;;;;;;49.73;28.00;;;12.90;84.10;;;;;;4995206;28;20446;-80
2022/10/13 02:29:10;;;;;;;54.63;28.20;;;12.90;84.20;;;;;;4998561;28;20504;-79
2022/10/13 02:31:40;;;;;;;53.00;28.97;;;12.90;84.20;;;;;;4994818;28;20457;-79
2022/10/13 02:34:09;;;;;;;59.97;28.57;;;12.90;84.30;;;;;;4994557;28;21012;-79
2022/10/13 02:36:37;;;;;;;51.57;27.73;;;12.90;84.30;;;;;;4995159;28;20499;-79
2022/10/13 02:39:06;;;;;;;67.67;29.20;;;12.90;84.40;;;;;;4993898;28;20468;-79
2022/10/13 02:41:34;;;;;;;52.37;29.33;;;12.90;84.40;;;;;;4996298;28;20507;-78
2022/10/13 02:44:02;;;;;;;55.90;28.10;;;13.00;84.50;;;;;;4995938;28;21076;-79
2022/10/13 02:46:42;;;;;;;51.43;26.60;;;13.00;84.50;;;;;;4997940;28;20576;-78
2022/10/13 02:49:10;;;;;;;41.90;25.47;;;13.00;84.60;;;;;;4994512;28;20460;-78
2022/10/13 02:51:38;;;;;;;55.63;24.23;;;13.00;84.60;;;;;;4995248;28;20464;-77
2022/10/13 02:54:07;;;;;;;44.00;25.60;;;13.00;84.60;;;;;;5004581;28;21285;-78
2022/10/13 02:56:35;;;;;;;36.60;24.73;;;13.00;84.70;;;;;;4997978;28;21319;-77
2022/10/13 02:59:03;;;;;;;46.73;24.90;;;13.00;84.70;;;;;;4996367;28;20494;-77
2022/10/13 03:01:31;;;;;;;47.80;25.60;;;13.00;84.70;;;;;;4997709;28;20461;-77
2022/10/13 03:04:01;;;;;;;64.37;25.93;;;13.00;84.70;;;;;;5000022;28;20556;-79
2022/10/13 03:06:29;;;;;;;45.90;25.43;;;13.00;84.80;;;;;;4999641;28;20524;-78
2022/10/13 03:08:56;;;;;;;51.23;23.87;;;13.00;84.80;;;;;;4993267;28;20484;-79
2022/10/13 03:11:25;;;;;;;49.33;24.10;;;13.00;84.70;;;;;;4996871;28;20539;-78
2022/10/13 03:13:53;;;;;;;52.70;24.07;;;13.00;84.80;;;;;;4998971;28;20441;-79
2022/10/13 03:16:21;;;;;;;65.53;23.50;;;13.00;84.80;;;;;;4997517;28;20444;-79
2022/10/13 03:18:49;;;;;;;69.70;26.83;;;13.00;84.70;;;;;;4997963;28;20494;-78
2022/10/13 03:21:18;;;;;;;58.87;24.13;;;12.90;84.70;;;;;;5001806;28;20488;-78
2022/10/13 03:23:46;;;;;;;88.90;25.67;;;12.90;84.80;;;;;;5002121;28;20467;-78
2022/10/13 03:26:15;;;;;;;43.10;22.77;;;12.90;84.70;;;;;;5016800;28;20461;-77
2022/10/13 03:28:43;;;;;;;85.03;25.37;;;12.80;84.80;;;;;;4996844;28;20511;-77
2022/10/13 03:31:11;;;;;;;46.00;23.50;;;12.80;84.90;;;;;;4997360;28;20477;-77
2022/10/13 03:33:40;;;;;;;52.13;23.83;;;12.80;84.80;;;;;;5000126;28;20862;-78
2022/10/13 03:36:08;;;;;;;52.13;25.40;;;12.80;84.90;;;;;;5001607;28;20539;-78
2022/10/13 03:38:39;;;;;;;50.13;25.93;;;12.80;84.90;;;;;;5002539;28;20984;-79
2022/10/13 03:41:11;;;;;;;51.13;25.60;;;12.80;84.90;;;;;;5000462;28;20478;-78
2022/10/13 03:43:40;;;;;;;44.43;25.20;;;12.80;84.90;;;;;;4996898;28;20450;-79
2022/10/13 03:46:10;;;;;;;54.43;25.20;;;12.80;85.00;;;;;;5000169;28;20476;-78
2022/10/13 03:48:39;;;;;;;44.93;23.50;;;12.80;85.00;;;;;;4998634;28;20472;-78
2022/10/13 03:51:08;;;;;;;45.27;23.77;;;12.70;85.00;;;;;;5002451;28;20539;-79
2022/10/13 03:53:40;;;;;;;39.07;23.00;;;12.70;85.00;;;;;;4999145;28;20507;-80
2022/10/13 03:56:12;;;;;;;44.00;22.53;;;12.70;85.10;;;;;;4997870;28;20488;-79
2022/10/13 03:58:45;;;;;;;44.10;24.60;;;12.70;85.10;;;;;;4998082;28;20442;-79
2022/10/13 04:01:13;;;;;;;42.53;24.87;;;12.70;85.10;;;;;;5003751;28;20480;-78
2022/10/13 04:03:42;;;;;;;41.57;25.07;;;12.80;85.10;;;;;;5000029;28;20456;-80
2022/10/13 04:06:10;;;;;;;38.03;22.67;;;12.70;85.10;;;;;;4999866;28;20509;-78
2022/10/13 04:08:39;;;;;;;37.23;23.70;;;12.70;85.10;;;;;;5002227;28;20787;-77
2022/10/13 04:11:10;;;;;;;36.83;21.37;;;12.70;85.10;;;;;;5001042;28;20540;-78
2022/10/13 04:13:40;;;;;;;34.20;21.87;;;12.70;85.10;;;;;;5003503;28;20460;-77
2022/10/13 04:16:13;;;;;;;31.63;21.30;;;12.70;85.10;;;;;;5002426;28;21374;-80
2022/10/13 04:18:41;;;;;;;39.07;21.00;;;12.70;85.20;;;;;;4999117;28;20522;-77
2022/10/13 04:21:14;;;;;;;37.73;20.87;;;12.70;85.20;;;;;;4999640;28;20651;-77
2022/10/13 04:23:43;;;;;;;28.40;19.73;;;12.70;85.10;;;;;;4998502;28;20460;-78
2022/10/13 04:26:16;;;;;;;31.93;19.73;;;12.70;85.10;;;;;;4999906;28;21036;-78
2022/10/13 04:28:45;;;;;;;32.37;19.53;;;12.70;85.20;;;;;;5003464;28;20454;-77
2022/10/13 04:31:13;;;;;;;31.10;20.00;;;12.70;85.20;;;;;;5001469;28;20508;-79
2022/10/13 04:33:41;;;;;;;32.87;19.70;;;12.70;85.20;;;;;;5003701;28;20524;-78
2022/10/13 04:36:11;;;;;;;30.40;19.30;;;12.70;85.30;;;;;;5014365;28;20540;-80
2022/10/13 04:38:40;;;;;;;36.80;21.10;;;12.70;85.30;;;;;;5001414;28;20474;-78
2022/10/13 04:41:10;;;;;;;35.23;22.50;;;12.80;85.30;;;;;;4995346;28;20472;-79
2022/10/13 04:43:38;;;;;;;34.40;22.20;;;12.80;85.30;;;;;;4998183;28;21027;-79
2022/10/13 04:46:08;;;;;;;37.03;21.50;;;12.80;85.30;;;;;;4998635;28;20945;-77
2022/10/13 04:48:36;;;;;;;39.33;22.80;;;12.80;85.30;;;;;;5014653;28;20460;-79
2022/10/13 04:51:06;;;;;;;44.97;22.77;;;12.80;85.30;;;;;;4999706;28;20486;-78
2022/10/13 04:53:34;;;;;;;36.70;22.47;;;12.80;85.40;;;;;;4999901;28;20512;-79
2022/10/13 04:56:03;;;;;;;47.63;23.20;;;12.80;85.40;;;;;;4998963;28;20485;-78
2022/10/13 04:58:33;;;;;;;42.30;23.23;;;12.80;85.40;;;;;;5000699;28;20507;-79
2022/10/13 05:01:02;;;;;;;51.30;24.00;;;12.80;85.40;;;;;;5004752;28;21186;-78
2022/10/13 05:03:30;;;;;;;44.83;23.53;;;12.80;85.50;;;;;;4998444;28;20462;-79
2022/10/13 05:05:58;;;;;;;39.93;22.63;;;12.80;85.50;;;;;;4997486;28;20474;-79
2022/10/13 05:08:26;;;;;;;40.50;22.50;;;12.80;85.50;;;;;;4999094;28;20879;-79
2022/10/13 05:10:56;;;;;;;37.23;21.27;;;12.80;85.60;;;;;;4998960;28;20478;-79
2022/10/13 05:13:24;;;;;;;33.83;20.70;;;12.90;85.60;;;;;;5001765;28;20460;-79
2022/10/13 05:15:58;;;;;;;35.70;20.67;;;12.90;85.60;;;;;;5000985;28;20938;-79
2022/10/13 05:18:26;;;;;;;38.30;21.10;;;12.90;85.60;;;;;;5004279;28;20469;-78
2022/10/13 05:20:55;;;;;;;41.37;21.63;;;12.90;85.70;;;;;;5002487;28;20590;-79
2022/10/13 05:23:24;;;;;;;38.37;21.37;;;12.90;85.70;;;;;;5021019;28;20473;-79
2022/10/13 05:25:51;;;;;;;41.50;23.43;;;13.00;85.70;;;;;;4999649;28;20450;-78
2022/10/13 05:28:21;;;;;;;41.57;21.97;;;13.00;85.70;;;;;;4999389;28;20535;-79
2022/10/13 05:30:49;;;;;;;42.30;21.03;;;13.00;85.70;;;;;;4999679;28;20531;-79
2022/10/13 05:33:18;;;;;;;40.70;21.33;;;13.00;85.70;;;;;;5002880;28;20459;-78
2022/10/13 05:35:46;;;;;;;46.37;21.70;;;13.00;85.70;;;;;;4999118;28;20498;-77
2022/10/13 05:38:14;;;;;;;39.37;21.37;;;13.00;85.60;;;;;;5001766;28;20450;-77
2022/10/13 05:40:43;;;;;;;43.43;22.53;;;13.00;85.60;;;;;;5001517;28;20952;-79
2022/10/13 05:43:11;;;;;;;50.63;24.17;;;13.00;85.60;;;;;;4996573;28;20492;-78
2022/10/13 05:45:40;;;;;;;42.30;23.53;;;13.00;85.70;;;;;;4994594;28;20517;-78
2022/10/13 05:48:08;;;;;;;48.10;23.47;;;13.00;85.70;;;;;;5001313;28;20986;-78
2022/10/13 05:50:37;;;;;;;46.50;22.93;;;13.00;85.70;;;;;;4999016;28;20477;-79
2022/10/13 05:53:05;;;;;;;45.80;22.13;;;13.10;85.60;;;;;;4999917;28;21039;-78
2022/10/13 05:55:33;;;;;;;48.93;23.17;;;13.10;85.60;;;;;;4994981;28;20501;-78
2022/10/13 05:58:02;;;;;;;44.70;22.20;;;13.10;85.60;;;;;;4998607;28;20470;-77
2022/10/13 06:00:30;;;;;;;52.17;24.17;;;13.10;85.60;;;;;;4996268;28;20521;-77
2022/10/13 06:03:03;;;;;;;54.00;25.03;;;13.10;85.60;;;;;;4993398;28;20458;-79
2022/10/13 06:05:32;;;;;;;61.67;25.57;;;13.10;85.60;;;;;;4998418;28;20467;-78
2022/10/13 06:08:02;;;;;;;55.60;26.80;;;13.10;85.60;;;;;;5003552;28;20452;-78
2022/10/13 06:10:30;;;;;;;72.77;26.70;;;13.10;85.60;;;;;;4997055;28;20468;-79
2022/10/13 06:12:58;;;;;;;63.67;25.30;;;13.10;85.60;;;;;;4999394;28;20460;-78
2022/10/13 06:15:26;;;;;;;55.80;25.23;;;13.10;85.60;;;;;;5000809;28;20457;-79
2022/10/13 06:17:56;;;;;;;57.23;23.70;;;13.10;85.80;;;;;;4998028;28;20966;-78
2022/10/13 06:20:26;;;;;;;58.97;25.20;;;13.10;85.80;;;;;;4997868;28;20476;-79
2022/10/13 06:22:54;;;;;;;55.23;24.63;;;13.10;85.90;;;;;;4999679;28;20476;-79
2022/10/13 06:25:23;;;;;;;57.60;23.90;;;13.10;85.90;;;;;;4998785;28;20508;-79
2022/10/13 06:27:51;;;;;;;57.67;24.10;;;13.20;85.80;;;;;;4998566;28;20457;-79
2022/10/13 06:30:19;;;;;;;57.30;26.43;;;13.20;85.90;;;;;;5001087;28;20477;-78
2022/10/13 06:32:47;;;;;;;69.33;27.13;;;13.20;85.90;;;;;;4998740;28;20475;-77
2022/10/13 06:35:15;;;;;;;62.57;25.10;;;13.20;85.90;;;;;;4995608;28;20926;-77
2022/10/13 06:37:45;;;;;;;72.77;27.80;;;13.20;85.90;;;;;;4995421;28;20481;-79
2022/10/13 06:40:13;;;;;;;57.53;26.20;;;13.20;85.90;;;;;;4996522;28;20494;-79
2022/10/13 06:42:42;;;;;;;60.23;25.73;;;13.20;85.90;;;;;;4997642;28;20458;-77
2022/10/13 06:45:10;;;;;;;65.00;26.80;;;13.20;85.90;;;;;;4999475;28;20453;-78
2022/10/13 06:47:40;;;;;;;69.60;26.80;;;13.20;85.90;;;;;;5002346;28;20445;-79
2022/10/13 06:50:09;;;;;;;77.43;30.00;;;13.20;86.00;;;;;;4997196;28;20490;-79
2022/10/13 06:52:37;;;;;;;80.63;27.80;;;13.20;86.00;;;;;;5009450;28;20462;-77
2022/10/13 06:55:05;;;;;;;72.67;28.03;;;13.20;86.20;;;;;;5002650;28;20453;-80
2022/10/13 06:57:34;;;;;;;76.17;28.10;;;13.20;86.30;;;;;;4999241;28;21085;-77
2022/10/13 07:00:10;;;;;;;72.90;27.27;;;13.20;86.30;;;;;;4999722;28;20481;-77
2022/10/13 07:02:38;;;;;;;65.03;26.40;;;13.20;86.40;;;;;;4998330;28;20954;-78
2022/10/13 07:05:07;;;;;;;61.87;27.40;;;13.20;86.30;;;;;;4994666;28;20453;-77
2022/10/13 07:07:35;;;;;;;66.80;25.93;;;13.20;86.40;;;;;;5000049;28;20453;-78
2022/10/13 07:10:03;;;;;;;69.50;26.90;;;13.30;86.50;;;;;;4996977;28;20568;-77
2022/10/13 07:12:31;;;;;;;66.00;26.07;;;13.30;86.40;;;;;;4997907;28;20471;-79
2022/10/13 07:14:59;;;;;;;60.80;25.70;;;13.40;86.50;;;;;;4999113;28;20454;-77
2022/10/13 07:17:28;;;;;;;60.93;26.43;;;13.40;86.50;;;;;;4998644;28;20491;-79
2022/10/13 07:19:56;;;;;;;53.13;23.13;;;13.40;86.50;;;;;;5000901;28;20987;-77
2022/10/13 07:22:26;;;;;;;57.50;24.43;;;13.50;86.40;;;;;;4997389;28;20458;-77
2022/10/13 07:24:54;;;;;;;46.13;22.30;;;13.50;86.50;;;;;;4997884;28;20492;-80
2022/10/13 07:27:24;;;;;;;804.93;517.90;;;13.60;86.50;;;;;;5002722;28;20490;-77
2022/10/13 07:29:52;;;;;;;121.03;59.63;;;13.60;86.40;;;;;;5002881;28;20480;-77
2022/10/13 07:32:20;;;;;;;65.40;34.57;;;13.60;86.40;;;;;;4999390;28;20539;-80
2022/10/13 07:34:52;;;;;;;58.77;28.47;;;13.60;86.30;;;;;;4999046;28;20461;-77
2022/10/13 07:37:20;;;;;;;54.43;25.33;;;13.60;86.30;;;;;;4998427;28;20605;-77
2022/10/13 07:39:49;;;;;;;50.27;24.40;;;13.60;86.40;;;;;;5004300;28;20996;-79
2022/10/13 07:42:17;;;;;;;112.13;53.53;;;13.60;86.60;;;;;;5014714;28;20457;-78
2022/10/13 07:44:44;;;;;;;89.70;46.60;;;13.60;86.60;;;;;;4997412;28;20461;-79
2022/10/13 07:47:12;;;;;;;81.13;43.07;;;13.70;86.60;;;;;;5001063;28;20460;-79
2022/10/13 07:49:42;;;;;;;71.97;36.37;;;13.70;86.60;;;;;;4999773;28;20876;-78
2022/10/13 07:52:11;;;;;;;59.30;28.40;;;13.80;86.60;;;;;;5000573;28;20457;-79
2022/10/13 07:54:39;;;;;;;45.57;24.90;;;13.80;86.60;;;;;;4996432;28;20458;-77
2022/10/13 07:57:07;;;;;;;52.93;23.50;;;13.80;86.50;;;;;;4997405;28;20512;-79
2022/10/13 07:59:35;;;;;;;46.07;24.27;;;13.90;86.60;;;;;;4999339;28;20907;-78
2022/10/13 08:02:04;;;;;;;43.60;22.77;;;13.90;86.60;;;;;;4996829;28;20465;-76
2022/10/13 08:04:33;;;;;;;45.33;22.13;;;13.90;86.50;;;;;;4999999;28;20461;-79
2022/10/13 08:07:01;;;;;;;37.60;19.90;;;14.00;86.60;;;;;;5001652;28;20785;-77
2022/10/13 08:09:30;;;;;;;43.23;22.47;;;14.00;86.50;;;;;;5000921;28;20527;-78
2022/10/13 08:11:58;;;;;;;39.30;20.53;;;14.10;86.40;;;;;;4998597;28;20890;-79
2022/10/13 08:14:28;;;;;;;44.03;22.70;;;14.10;86.30;;;;;;5000208;28;20453;-77
2022/10/13 08:16:57;;;;;;;43.53;21.27;;;14.10;86.40;;;;;;5000373;28;20468;-78
2022/10/13 08:19:25;;;;;;;42.97;22.57;;;14.00;86.40;;;;;;5003585;28;20829;-78
2022/10/13 08:21:53;;;;;;;41.60;21.33;;;14.00;86.40;;;;;;4996053;28;20461;-77
2022/10/13 08:24:28;;;;;;;35.53;21.50;;;14.00;86.50;;;;;;4999969;28;20617;-78
2022/10/13 08:26:57;;;;;;;37.27;22.50;;;14.10;86.70;;;;;;5004968;28;20542;-79
2022/10/13 08:29:25;;;;;;;39.97;21.67;;;14.10;86.80;;;;;;5001178;28;20518;-78
2022/10/13 08:31:53;;;;;;;31.90;19.13;;;14.20;86.70;;;;;;5001224;28;20453;-77
2022/10/13 08:34:22;;;;;;;31.27;18.87;;;14.20;86.70;;;;;;4998555;28;20460;-78
2022/10/13 08:36:52;;;;;;;36.23;19.37;;;14.30;86.60;;;;;;5000080;28;20459;-78
2022/10/13 08:39:21;;;;;;;36.63;19.47;;;14.30;86.50;;;;;;4999031;28;20849;-79
2022/10/13 08:41:50;;;;;;;42.50;22.70;;;14.30;86.50;;;;;;4999537;28;20827;-78
2022/10/13 08:44:25;;;;;;;38.43;21.20;;;14.40;86.50;;;;;;5000026;28;20603;-77
2022/10/13 08:47:21;;;;;;;39.10;22.03;;;14.40;86.50;;;;;;5001297;28;20455;-78
2022/10/13 08:49:49;;;;;;;44.60;23.50;;;14.50;86.50;;;;;;5001584;28;20468;-78
2022/10/13 08:52:20;;;;;;;36.40;21.63;;;14.50;86.40;;;;;;4999745;28;20456;-76
2022/10/13 08:54:49;;;;;;;38.13;23.20;;;14.50;86.50;;;;;;5002165;28;20488;-78
2022/10/13 08:57:18;;;;;;;43.20;23.70;;;14.60;86.50;;;;;;4999579;28;20479;-78
2022/10/13 08:59:48;;;;;;;39.90;23.13;;;14.60;86.40;;;;;;5015929;28;20477;-77
2022/10/13 09:02:31;;;;;;;37.70;24.57;;;14.70;86.50;;;;;;5017352;28;20492;-78
2022/10/13 09:05:03;;;;;;;46.13;23.37;;;14.70;86.40;;;;;;4999974;28;20470;-79
2022/10/13 09:07:35;;;;;;;39.90;22.60;;;14.80;86.40;;;;;;5000999;28;20501;-78
2022/10/13 09:10:06;;;;;;;43.70;24.63;;;14.80;86.40;;;;;;4995510;28;20477;-78
2022/10/13 09:12:34;;;;;;;51.10;23.70;;;14.80;86.30;;;;;;4994837;28;20454;-78
2022/10/13 09:15:07;;;;;;;45.97;23.93;;;14.80;86.20;;;;;;4997833;28;20521;-79
2022/10/13 09:17:38;;;;;;;46.30;23.00;;;14.80;86.20;;;;;;4999155;28;20505;-77
2022/10/13 09:20:15;;;;;;;44.13;23.70;;;14.90;86.20;;;;;;5002294;28;20491;-78
2022/10/13 09:22:44;;;;;;;38.37;23.10;;;14.90;86.10;;;;;;4997481;28;20449;-78
2022/10/13 09:25:19;;;;;;;48.33;24.43;;;14.90;86.10;;;;;;5000601;28;20541;-78
2022/10/13 09:27:50;;;;;;;43.20;22.73;;;15.00;86.10;;;;;;5001022;28;20444;-78
2022/10/13 09:30:29;;;;;;;35.50;22.13;;;15.00;86.10;;;;;;5002186;28;21059;-77
2022/10/13 09:33:14;;;;;;;45.60;21.47;;;15.00;86.00;;;;;;5005020;28;20441;-79
2022/10/13 09:35:44;;;;;;;36.37;22.73;;;15.00;85.90;;;;;;5016974;28;21056;-80
2022/10/13 09:38:15;;;;;;;41.20;22.17;;;15.00;85.90;;;;;;5003091;28;20468;-77
2022/10/13 09:40:57;;;;;;;35.07;21.20;;;15.10;85.90;;;;;;4999066;28;20612;-78
2022/10/13 09:43:30;;;;;;;35.33;19.40;;;15.10;85.80;;;;;;4998949;28;20472;-79
2022/10/13 09:46:02;;;;;;;31.77;19.27;;;15.10;85.90;;;;;;5001863;28;20460;-78
2022/10/13 09:48:32;;;;;;;39.67;21.83;;;15.10;85.80;;;;;;4998406;28;20457;-78
2022/10/13 09:51:01;;;;;;;32.30;19.47;;;15.10;85.80;;;;;;5002225;28;20542;-80
2022/10/13 09:53:32;;;;;;;37.50;21.63;;;15.10;85.80;;;;;;5000547;28;20453;-78
2022/10/13 09:56:19;;;;;;;31.37;19.03;;;15.20;85.70;;;;;;4998861;28;20519;-80
2022/10/13 09:58:53;;;;;;;30.27;18.40;;;15.20;85.80;;;;;;4999599;28;20481;-78
2022/10/13 10:01:27;;;;;;;35.87;20.50;;;15.20;85.70;;;;;;4995098;28;20500;-79
2022/10/13 10:03:57;;;;;;;35.50;18.07;;;15.20;85.70;;;;;;4999682;28;20516;-76
2022/10/13 10:06:25;;;;;;;31.87;17.90;;;15.30;85.80;;;;;;4995654;28;20450;-78
2022/10/13 10:09:02;;;;;;;34.27;18.40;;;15.30;85.80;;;;;;5000543;28;20484;-79
2022/10/13 10:11:37;;;;;;;27.20;17.00;;;15.40;85.70;;;;;;4995473;28;20477;-79
2022/10/13 10:14:15;;;;;;;39.23;18.67;;;15.40;85.60;;;;;;4988638;28;20464;-79
2022/10/13 10:16:50;;;;;;;32.90;17.67;;;15.40;85.50;;;;;;4999258;28;20465;-79
2022/10/13 10:19:22;;;;;;;31.10;18.57;;;15.50;85.40;;;;;;4998056;28;20484;-79
2022/10/13 10:21:57;;;;;;;31.90;18.73;;;15.50;85.30;;;;;;4999583;28;20442;-79
2022/10/13 10:24:32;;;;;;;31.60;17.40;;;15.50;85.30;;;;;;5000828;28;20472;-78
2022/10/13 10:27:05;;;;;;;32.20;17.90;;;15.60;85.20;;;;;;4997670;28;20972;-78
2022/10/13 10:29:45;;;;;;;29.27;17.50;;;15.60;85.10;;;;;;4996714;28;20507;-78
2022/10/13 10:32:27;;;;;;;34.87;18.67;;;15.60;85.10;;;;;;4997897;28;20453;-79
2022/10/13 10:34:59;;;;;;;33.37;19.20;;;15.60;85.00;;;;;;5017997;28;21093;-79
2022/10/13 10:37:46;;;;;;;31.77;18.60;;;15.60;84.90;;;;;;5000850;28;20449;-79
2022/10/13 10:40:27;;;;;;;28.93;17.47;;;15.60;85.00;;;;;;4998530;28;20485;-79
2022/10/13 10:43:22;;;;;;;29.80;17.33;;;15.60;85.10;;;;;;5001632;28;20579;-79
2022/10/13 10:45:50;;;;;;;30.63;16.60;;;15.70;85.00;;;;;;4992761;28;21108;-78
2022/10/13 10:48:24;;;;;;;26.27;17.17;;;15.70;85.10;;;;;;5003223;28;20456;-78
2022/10/13 10:50:53;;;;;;;33.20;17.57;;;15.70;85.10;;;;;;4996791;28;20476;-79
2022/10/13 10:53:31;;;;;;;26.63;16.60;;;15.70;85.00;;;;;;4996636;28;20445;-79
2022/10/13 10:56:07;;;;;;;27.87;15.80;;;15.80;85.00;;;;;;4995564;28;20533;-79
2022/10/13 10:58:42;;;;;;;27.83;17.67;;;15.80;85.00;;;;;;4997024;28;20531;-78
2022/10/13 11:01:29;;;;;;;32.63;17.40;;;15.80;84.90;;;;;;5001122;28;20534;-78
2022/10/13 11:04:23;;;;;;;32.60;16.73;;;15.90;84.90;;;;;;4999556;28;20464;-76
2022/10/13 11:06:51;;;;;;;27.60;17.60;;;15.90;84.70;;;;;;4993992;28;20469;-79
2022/10/13 11:09:56;;;;;;;26.30;16.50;;;15.90;84.70;;;;;;5013788;28;20888;-78
2022/10/13 11:12:24;;;;;;;29.93;17.27;;;15.90;84.70;;;;;;5013839;28;20453;-79
2022/10/13 11:15:07;;;;;;;28.60;17.03;;;15.90;84.90;;;;;;4994579;28;20460;-80
2022/10/13 11:17:38;;;;;;;31.93;17.67;;;16.00;84.90;;;;;;4996286;28;20444;-78
2022/10/13 11:20:57;;;;;;;26.63;15.37;;;16.00;84.80;;;;;;5017252;28;20485;-79
2022/10/13 11:23:33;;;;;;;29.10;17.30;;;16.10;84.60;;;;;;4997523;28;20807;-78
2022/10/13 11:26:42;;;;;;;33.13;18.43;;;16.10;84.50;;;;;;5001797;28;20492;-77
2022/10/13 11:29:38;;;;;;;30.37;18.07;;;16.10;84.40;;;;;;4919193;29;20461;-78
2022/10/13 11:32:54;;;;;;;27.47;16.70;;;16.00;84.40;;;;;;4940990;29;20534;-78
2022/10/13 11:35:27;;;;;;;28.63;16.93;;;16.00;84.40;;;;;;4997339;28;20454;-79
2022/10/13 11:38:22;;;;;;;29.73;18.10;;;16.00;84.40;;;;;;4998161;28;20519;-79
2022/10/13 11:41:09;;;;;;;24.63;13.97;;;16.00;84.30;;;;;;4997321;28;20543;-79
2022/10/13 11:43:50;;;;;;;30.70;16.00;;;16.00;84.30;;;;;;4994534;28;20476;-77
2022/10/13 11:46:27;;;;;;;27.07;15.37;;;16.00;84.30;;;;;;5003008;28;20461;-77
2022/10/13 11:49:20;;;;;;;25.97;15.00;;;16.10;84.30;;;;;;5004632;28;20448;-77
2022/10/13 11:52:23;;;;;;;22.53;14.00;;;16.10;84.20;;;;;;4998713;28;20454;-79
2022/10/13 11:54:55;;;;;;;21.10;14.27;;;16.00;84.20;;;;;;4998936;28;20464;-77
2022/10/13 11:57:25;;;;;;;22.87;13.10;;;16.00;84.30;;;;;;5001398;28;20495;-79
2022/10/13 11:59:55;;;;;;;24.40;14.00;;;16.10;84.20;;;;;;5004711;28;20492;-79
2022/10/13 12:02:29;;;;;;;35.03;14.13;;;16.10;84.00;;;;;;5000950;28;20449;-78
2022/10/13 12:05:03;;;;;;;20.33;13.83;;;16.10;84.00;;;;;;5002345;28;20452;-79
2022/10/13 12:07:41;;;;;;;32.30;14.97;;;16.10;83.90;;;;;;5001767;28;20456;-78
2022/10/13 12:10:19;;;;;;;19.80;12.70;;;16.10;83.90;;;;;;5004608;28;20522;-78
2022/10/13 12:12:49;;;;;;;22.13;13.27;;;16.00;83.90;;;;;;5002279;28;20484;-77
2022/10/13 12:15:31;;;;;;;25.43;13.40;;;16.10;83.80;;;;;;4998093;28;20452;-78
2022/10/13 12:17:59;;;;;;;23.30;12.83;;;16.10;83.80;;;;;;4999585;28;20503;-79
2022/10/13 12:20:30;;;;;;;21.60;14.00;;;16.00;83.80;;;;;;5020460;28;20515;-77
2022/10/13 12:23:00;;;;;;;24.50;14.23;;;16.00;83.70;;;;;;5001636;28;20441;-77
2022/10/13 12:25:29;;;;;;;21.13;13.13;;;16.00;83.70;;;;;;4999063;28;20914;-80
2022/10/13 12:27:59;;;;;;;24.07;12.87;;;16.10;83.60;;;;;;4998491;28;20544;-78
2022/10/13 12:30:29;;;;;;;19.07;12.30;;;16.10;83.60;;;;;;4999764;28;20472;-77
2022/10/13 12:32:59;;;;;;;22.53;14.20;;;16.00;83.60;;;;;;4999609;28;20972;-79
2022/10/13 12:35:29;;;;;;;25.60;13.13;;;16.00;83.50;;;;;;4998950;28;20978;-77
2022/10/13 12:38:00;;;;;;;21.93;13.13;;;16.00;83.40;;;;;;5002432;28;20824;-78
2022/10/13 12:40:30;;;;;;;25.30;13.43;;;16.00;83.50;;;;;;4999831;28;20493;-78
2022/10/13 12:42:58;;;;;;;24.03;14.20;;;16.00;83.50;;;;;;5000304;28;21275;-78
2022/10/13 12:45:31;;;;;;;22.53;13.13;;;16.00;83.40;;;;;;4997145;28;20465;-78
2022/10/13 12:47:59;;;;;;;22.70;13.13;;;16.00;83.40;;;;;;4999928;28;20457;-77
2022/10/13 12:50:37;;;;;;;23.90;13.70;;;16.00;83.40;;;;;;5002112;28;20489;-78